Time;durP1;ratioP1;P1;durP2;ratioP2;P2;SDS_P1;SDS_P2;PMS_P1;PMS_P2;Temp;Humidity;BMP_temperature;BMP_pressure;BME280_temperature;BME280_humidity;BME280_pressure;Samples;Min_cycle;Max_cycle;Signal;HPM_P1;HPM_P2
2022/09/17 00:00:41;;;;;;;4.43;1.33;;;;;;;6.15;100.00;92726.75;2131973;27;20019;-69
2022/09/17 00:01:42;;;;;;;1.55;1.38;;;;;;;6.11;100.00;92717.34;2132053;27;20026;-69
2022/09/17 00:02:44;;;;;;;3.28;1.38;;;;;;;6.02;100.00;92717.81;2122516;27;20026;-67
2022/09/17 00:03:51;;;;;;;1.95;1.52;;;;;;;5.98;100.00;92725.06;2119429;27;20032;-68
2022/09/17 00:04:52;;;;;;;2.83;1.30;;;;;;;6.16;100.00;92724.84;2132148;27;20038;-69
2022/09/17 00:06:01;;;;;;;3.90;1.95;;;;;;;6.07;100.00;92724.59;2131868;27;20035;-66
2022/09/17 00:07:03;;;;;;;4.60;1.55;;;;;;;6.10;100.00;92724.53;2132145;27;20059;-68
2022/09/17 00:08:06;;;;;;;4.22;1.80;;;;;;;6.05;100.00;92723.06;2131530;27;20069;-68
2022/09/17 00:09:07;;;;;;;3.92;1.40;;;;;;;6.13;100.00;92726.38;2122765;27;20023;-67
2022/09/17 00:10:08;;;;;;;3.33;1.70;;;;;;;5.97;100.00;92716.34;2122981;27;20099;-67
2022/09/17 00:11:13;;;;;;;3.50;1.50;;;;;;;5.99;100.00;92726.56;2131910;27;20039;-68
2022/09/17 00:12:14;;;;;;;4.72;1.80;;;;;;;6.00;100.00;92720.84;2118746;27;20421;-68
2022/09/17 00:13:15;;;;;;;3.75;1.80;;;;;;;6.07;100.00;92727.97;2122171;27;20031;-66
2022/09/17 00:14:16;;;;;;;2.88;1.58;;;;;;;6.03;100.00;92724.63;2132370;27;20022;-67
2022/09/17 00:15:17;;;;;;;1.95;1.42;;;;;;;5.97;100.00;92719.00;2131874;27;20049;-69
2022/09/17 00:16:37;;;;;;;3.47;1.73;;;;;;;5.91;100.00;92720.53;2131767;27;20115;-69
2022/09/17 00:17:38;;;;;;;2.05;1.67;;;;;;;5.90;100.00;92724.34;2132132;27;20033;-69
2022/09/17 00:18:40;;;;;;;3.45;1.63;;;;;;;5.90;100.00;92724.34;2131678;27;20030;-67
2022/09/17 00:19:41;;;;;;;2.85;1.45;;;;;;;5.96;100.00;92728.09;2131858;27;20163;-67
2022/09/17 00:20:45;;;;;;;2.72;1.98;;;;;;;6.04;100.00;92728.75;2132029;27;20079;-67
2022/09/17 00:21:46;;;;;;;3.30;1.67;;;;;;;5.97;100.00;92734.91;2127857;27;20069;-67
2022/09/17 00:22:47;;;;;;;2.20;1.70;;;;;;;5.96;100.00;92730.00;2131824;27;20106;-67
2022/09/17 00:23:52;;;;;;;2.38;1.20;;;;;;;6.00;100.00;92736.00;2131439;27;20030;-67
2022/09/17 00:24:52;;;;;;;2.90;1.80;;;;;;;5.97;100.00;92731.47;2131848;27;20034;-68
2022/09/17 00:25:53;;;;;;;3.67;1.67;;;;;;;5.99;100.00;92731.84;2131928;27;20441;-67
2022/09/17 00:26:55;;;;;;;3.88;1.58;;;;;;;6.13;100.00;92734.34;2131741;27;20038;-68
2022/09/17 00:27:56;;;;;;;5.47;1.27;;;;;;;6.15;100.00;92732.06;2131859;27;20051;-67
2022/09/17 00:28:57;;;;;;;5.57;1.80;;;;;;;6.08;100.00;92734.03;2131920;27;20030;-67
2022/09/17 00:29:58;;;;;;;6.28;1.45;;;;;;;5.95;100.00;92726.59;2131292;27;20082;-69
2022/09/17 00:30:59;;;;;;;2.45;1.35;;;;;;;5.92;100.00;92734.56;2132012;27;20084;-69
2022/09/17 00:32:00;;;;;;;4.25;1.58;;;;;;;5.83;100.00;92729.72;2133594;27;20026;-67
2022/09/17 00:33:01;;;;;;;4.68;1.30;;;;;;;6.00;100.00;92726.16;2131890;27;20079;-67
2022/09/17 00:34:03;;;;;;;1.42;1.33;;;;;;;5.87;100.00;92724.38;2131803;27;20027;-68
2022/09/17 00:35:06;;;;;;;2.00;1.33;;;;;;;5.78;100.00;92730.13;2131155;27;20054;-67
2022/09/17 00:36:07;;;;;;;2.88;1.48;;;;;;;5.72;100.00;92731.72;2131828;27;20030;-69
2022/09/17 00:37:08;;;;;;;1.85;1.38;;;;;;;5.81;100.00;92726.72;2131560;27;20252;-66
2022/09/17 00:38:09;;;;;;;5.57;1.58;;;;;;;5.80;100.00;92728.63;2131895;27;20105;-68
2022/09/17 00:39:14;;;;;;;1.65;1.35;;;;;;;5.96;100.00;92722.78;2131994;27;20632;-68
2022/09/17 00:40:15;;;;;;;1.85;1.23;;;;;;;5.97;100.00;92724.31;2126922;27;20117;-67
2022/09/17 00:41:17;;;;;;;5.63;1.58;;;;;;;6.02;100.00;92723.88;2131789;27;20019;-67
2022/09/17 00:42:19;;;;;;;3.95;1.45;;;;;;;6.02;100.00;92723.13;2122490;27;20062;-67
2022/09/17 00:43:33;;;;;;;2.50;1.05;;;;;;;5.94;100.00;92716.38;2114424;27;20016;-68
2022/09/17 00:44:48;;;;;;;3.13;1.20;;;;;;;5.93;100.00;92717.53;2124864;27;20118;-68
2022/09/17 00:45:52;;;;;;;1.35;1.25;;;;;;;5.86;100.00;92717.56;2129439;27;20031;-67
2022/09/17 00:46:53;;;;;;;1.75;1.40;;;;;;;5.81;100.00;92713.44;2131950;27;20032;-67
2022/09/17 00:48:00;;;;;;;3.67;1.27;;;;;;;5.96;100.00;92716.72;2131492;27;20445;-67
2022/09/17 00:49:22;;;;;;;2.08;1.60;;;;;;;5.84;100.00;92715.31;2131782;27;20093;-67
2022/09/17 00:50:28;;;;;;;3.60;1.50;;;;;;;5.87;100.00;92716.41;2130484;27;20027;-69
2022/09/17 00:51:38;;;;;;;2.17;1.52;;;;;;;5.77;100.00;92715.38;2125565;27;20038;-67
2022/09/17 00:52:46;;;;;;;1.60;1.50;;;;;;;5.93;100.00;92717.53;2131383;27;20030;-68
2022/09/17 00:53:47;;;;;;;3.17;1.38;;;;;;;5.91;100.00;92719.78;2131781;27;20454;-68
2022/09/17 00:54:58;;;;;;;4.55;1.60;;;;;;;5.99;100.00;92719.34;2131254;27;20038;-67
2022/09/17 00:56:10;;;;;;;4.60;1.50;;;;;;;6.00;100.00;92718.19;2121277;27;20031;-68
2022/09/17 00:57:11;;;;;;;2.03;1.75;;;;;;;5.83;100.00;92719.09;2124189;27;20080;-69
2022/09/17 00:58:15;;;;;;;1.80;1.60;;;;;;;5.91;100.00;92720.53;2122134;27;20499;-67
2022/09/17 00:59:18;;;;;;;2.75;1.50;;;;;;;5.83;100.00;92716.44;2119046;27;20400;-68
2022/09/17 01:00:20;;;;;;;3.33;1.70;;;;;;;5.94;100.00;92719.03;2131676;27;20022;-68
2022/09/17 01:01:21;;;;;;;3.83;1.95;;;;;;;5.90;100.00;92724.34;2130926;27;20027;-67
2022/09/17 01:02:23;;;;;;;2.05;1.60;;;;;;;5.80;100.00;92719.91;2131757;27;20023;-68
2022/09/17 01:03:25;;;;;;;4.53;1.90;;;;;;;5.98;100.00;92725.81;2131598;27;20041;-68
2022/09/17 01:04:26;;;;;;;3.28;1.90;;;;;;;5.97;100.00;92721.66;2131751;27;20011;-67
2022/09/17 01:06:13;;;;;;;2.85;1.60;;;;;;;6.08;100.00;92720.78;2131402;27;20027;-67
2022/09/17 01:07:25;;;;;;;2.78;1.75;;;;;;;6.01;100.00;92716.28;2106056;27;20066;-67
2022/09/17 01:08:38;;;;;;;4.47;1.58;;;;;;;5.89;100.00;92724.75;2131344;27;20050;-67
2022/09/17 01:10:00;;;;;;;2.33;1.60;;;;;;;5.81;100.00;92718.75;2131432;27;20053;-68
2022/09/17 01:11:28;;;;;;;4.55;1.95;;;;;;;5.84;100.00;92725.16;2125502;27;20042;-68
2022/09/17 01:12:41;;;;;;;2.00;1.45;;;;;;;5.83;100.00;92727.06;2129485;27;20030;-68
2022/09/17 01:14:19;;;;;;;2.45;1.58;;;;;;;5.71;100.00;92724.94;2131276;27;20034;-67
2022/09/17 01:15:45;;;;;;;1.70;1.60;;;;;;;5.87;100.00;92727.03;2128029;27;20036;-67
2022/09/17 01:17:06;;;;;;;1.60;1.50;;;;;;;5.86;100.00;92728.94;2127491;27;20026;-68
2022/09/17 01:18:22;;;;;;;4.80;1.85;;;;;;;5.92;100.00;92726.63;2131554;27;20026;-68
2022/09/17 01:19:35;;;;;;;4.20;1.65;;;;;;;5.97;100.00;92715.56;2119187;27;20509;-67
2022/09/17 01:21:13;;;;;;;3.40;1.80;;;;;;;5.89;100.00;92719.44;2124100;27;20019;-67
2022/09/17 01:22:43;;;;;;;2.25;1.65;;;;;;;5.78;100.00;92722.19;2131476;27;20027;-70
2022/09/17 01:24:17;;;;;;;1.92;1.67;;;;;;;5.75;100.00;92720.31;2087706;27;20049;-67
2022/09/17 01:25:23;;;;;;;2.58;2.00;;;;;;;5.71;100.00;92719.63;2131567;27;20224;-68
2022/09/17 01:26:39;;;;;;;2.58;1.60;;;;;;;5.78;100.00;92719.53;2130995;27;20806;-68
2022/09/17 01:28:02;;;;;;;3.60;1.75;;;;;;;5.83;100.00;92719.09;2130950;27;20027;-67
2022/09/17 01:29:02;;;;;;;3.00;1.92;;;;;;;5.90;100.00;92721.69;2129823;27;20379;-68
2022/09/17 01:30:25;;;;;;;4.45;1.88;;;;;;;5.72;100.00;92723.78;2131009;27;20019;-68
2022/09/17 01:31:30;;;;;;;3.83;1.85;;;;;;;5.78;100.00;92714.22;2128902;27;20029;-68
2022/09/17 01:33:02;;;;;;;3.15;1.75;;;;;;;5.75;100.00;92720.31;2130721;27;20072;-67
2022/09/17 01:34:16;;;;;;;5.63;1.85;;;;;;;5.64;100.00;92717.78;2129794;27;20034;-69
2022/09/17 01:35:53;;;;;;;5.00;1.95;;;;;;;5.90;100.00;92724.34;2127401;27;20401;-69
2022/09/17 01:37:04;;;;;;;4.75;2.13;;;;;;;5.79;100.00;92731.63;2107049;27;20034;-68
2022/09/17 01:38:25;;;;;;;4.32;2.10;;;;;;;5.87;100.00;92730.44;2131343;27;20173;-68
2022/09/17 01:39:51;;;;;;;4.32;2.15;;;;;;;5.93;100.00;92725.50;2128799;27;20027;-69
2022/09/17 01:41:20;;;;;;;2.55;2.20;;;;;;;5.97;100.00;92732.25;2128222;27;20030;-66
2022/09/17 01:42:33;;;;;;;4.47;2.13;;;;;;;5.98;100.00;92739.06;2127233;27;20482;-67
2022/09/17 01:43:49;;;;;;;5.07;2.13;;;;;;;5.79;100.00;92731.63;2131216;27;20357;-67
2022/09/17 01:44:51;;;;;;;3.63;2.17;;;;;;;5.78;100.00;92730.13;2119075;27;20384;-68
2022/09/17 01:46:25;;;;;;;2.67;2.40;;;;;;;5.86;100.00;92736.88;2122087;27;20042;-68
2022/09/17 01:47:34;;;;;;;2.65;2.45;;;;;;;5.90;100.00;92731.56;2122599;27;20070;-69
2022/09/17 01:48:40;;;;;;;5.90;2.67;;;;;;;5.85;100.00;92726.69;2131282;27;20038;-67
2022/09/17 01:49:42;;;;;;;3.63;2.72;;;;;;;5.83;100.00;92729.72;2131089;27;20049;-67
2022/09/17 01:50:51;;;;;;;3.45;2.70;;;;;;;5.79;100.00;92737.72;2130933;27;20025;-68
2022/09/17 01:51:53;;;;;;;2.70;2.50;;;;;;;5.89;100.00;92738.75;2128239;27;20026;-67
2022/09/17 01:52:56;;;;;;;3.70;2.22;;;;;;;5.83;100.00;92737.66;2130563;27;20125;-66
2022/09/17 01:54:03;;;;;;;4.43;2.35;;;;;;;5.79;100.00;92743.03;2131280;27;20034;-65
2022/09/17 01:55:10;;;;;;;3.33;2.40;;;;;;;5.74;100.00;92743.44;2131199;27;20384;-67
2022/09/17 01:56:17;;;;;;;6.88;2.30;;;;;;;5.66;100.00;92736.69;2130849;27;20033;-67
2022/09/17 01:57:32;;;;;;;3.35;2.10;;;;;;;5.65;100.00;92731.78;2127554;27;20101;-68
2022/09/17 01:58:41;;;;;;;2.97;2.40;;;;;;;5.64;100.00;92732.94;2130526;27;20019;-68
2022/09/17 01:59:54;;;;;;;2.92;2.35;;;;;;;5.69;100.00;92727.94;2131321;27;20022;-68
2022/09/17 02:01:03;;;;;;;2.90;2.00;;;;;;;5.79;100.00;92739.59;2128182;27;20495;-67
2022/09/17 02:02:16;;;;;;;3.33;2.33;;;;;;;5.74;100.00;92746.09;2131151;27;20031;-68
2022/09/17 02:03:25;;;;;;;4.03;2.03;;;;;;;5.71;100.00;92740.84;2126724;27;20022;-68
2022/09/17 02:04:33;;;;;;;3.22;2.40;;;;;;;5.86;100.00;92736.88;2131352;27;20038;-67
2022/09/17 02:05:58;;;;;;;4.78;2.20;;;;;;;5.80;100.00;92744.53;2121942;27;20542;-67
2022/09/17 02:07:04;;;;;;;2.08;1.88;;;;;;;5.84;100.00;92747.16;2123303;27;20464;-68
2022/09/17 02:08:10;;;;;;;2.10;2.00;;;;;;;6.09;100.00;92748.81;2130462;27;20034;-66
2022/09/17 02:09:21;;;;;;;2.22;2.05;;;;;;;5.88;100.00;92747.84;2131259;27;20027;-68
2022/09/17 02:10:29;;;;;;;6.47;2.10;;;;;;;5.87;100.00;92742.94;2128025;27;20019;-67
2022/09/17 02:11:35;;;;;;;4.90;2.15;;;;;;;5.86;100.00;92752.81;2131004;27;20468;-67
2022/09/17 02:12:43;;;;;;;5.63;2.30;;;;;;;5.87;100.00;92753.53;2131003;27;20019;-67
2022/09/17 02:15:33;;;;;;;;;;;;;;;5.85;100.00;92750.56;2145404;27;20546;-68
2022/09/17 02:16:38;;;;;;;4.32;2.17;;;;;;;5.92;100.00;92753.91;2138770;27;19930;-66
2022/09/17 02:18:05;;;;;;;4.15;1.95;;;;;;;5.90;100.00;92753.53;2129055;27;20027;-71
2022/09/17 02:19:12;;;;;;;3.35;2.08;;;;;;;5.88;100.00;92753.16;2131364;27;20018;-69
2022/09/17 02:20:15;;;;;;;2.55;2.20;;;;;;;5.86;100.00;92747.50;2138744;27;20030;-71
2022/09/17 02:21:50;;;;;;;7.55;2.58;;;;;;;5.95;100.00;92758.41;2116989;28;20020;-71
2022/09/17 02:23:03;;;;;;;4.22;2.00;;;;;;;6.13;100.00;92752.91;2123009;27;20018;-71
2022/09/17 02:24:25;;;;;;;2.05;1.70;;;;;;;6.10;100.00;92753.69;2138543;27;20036;-70
2022/09/17 02:25:40;;;;;;;4.72;1.90;;;;;;;6.14;100.00;92761.63;2135999;27;20018;-69
2022/09/17 02:26:49;;;;;;;2.83;2.00;;;;;;;5.99;100.00;92767.09;2138633;27;20456;-70
2022/09/17 02:28:23;;;;;;;2.25;1.73;;;;;;;6.07;100.00;92756.41;2130683;27;20033;-69
2022/09/17 02:29:39;;;;;;;2.00;1.83;;;;;;;5.95;100.00;92761.06;2135115;27;20035;-67
2022/09/17 02:30:40;;;;;;;6.10;1.77;;;;;;;5.92;100.00;92761.09;2138570;27;20030;-66
2022/09/17 02:31:41;;;;;;;4.72;1.95;;;;;;;5.94;100.00;92767.53;2138526;27;20436;-70
2022/09/17 02:32:42;;;;;;;3.08;2.10;;;;;;;5.95;100.00;92762.97;2138190;27;20158;-71
2022/09/17 02:33:47;;;;;;;2.80;1.98;;;;;;;6.08;100.00;92763.22;2138549;27;20018;-69
2022/09/17 02:34:50;;;;;;;3.83;2.00;;;;;;;6.07;100.00;92767.03;2134022;27;20133;-69
2022/09/17 02:35:51;;;;;;;2.40;1.80;;;;;;;6.02;100.00;92760.25;2138614;27;20026;-68
2022/09/17 02:36:53;;;;;;;2.63;1.75;;;;;;;6.15;100.00;92769.22;2138539;27;20026;-68
2022/09/17 02:38:12;;;;;;;4.18;1.80;;;;;;;6.16;100.00;92765.41;2138298;27;20440;-70
2022/09/17 02:39:13;;;;;;;2.88;1.80;;;;;;;6.18;100.00;92765.00;2138417;27;20075;-68
2022/09/17 02:40:17;;;;;;;2.28;1.60;;;;;;;6.14;100.00;92761.63;2134157;27;20034;-68
2022/09/17 02:41:28;;;;;;;3.45;1.77;;;;;;;6.09;100.00;92759.41;2138396;27;20034;-68
2022/09/17 02:42:29;;;;;;;3.55;1.90;;;;;;;6.11;100.00;92763.19;2138457;27;20074;-70
2022/09/17 02:44:11;;;;;;;4.13;1.70;;;;;;;6.08;100.00;92765.88;2138132;27;20075;-68
2022/09/17 02:45:20;;;;;;;1.88;1.70;;;;;;;6.11;100.00;92757.88;2134168;27;20047;-71
2022/09/17 02:46:41;;;;;;;3.58;1.60;;;;;;;6.08;100.00;92758.66;2135025;27;20058;-68
2022/09/17 02:47:48;;;;;;;3.97;1.90;;;;;;;6.02;100.00;92761.00;2138374;27;20078;-68
2022/09/17 02:49:06;;;;;;;3.42;2.05;;;;;;;6.05;100.00;92754.91;2130362;27;20521;-68
2022/09/17 02:50:09;;;;;;;3.53;1.75;;;;;;;6.05;100.00;92762.84;2137831;27;20106;-69
2022/09/17 02:51:15;;;;;;;5.15;1.80;;;;;;;5.94;100.00;92750.88;2138403;27;20023;-67
2022/09/17 02:52:45;;;;;;;2.47;1.60;;;;;;;5.95;100.00;92755.75;2134339;27;20029;-70
2022/09/17 02:53:55;;;;;;;1.80;1.70;;;;;;;5.93;100.00;92755.41;2134339;27;20039;-67
2022/09/17 02:55:09;;;;;;;4.53;1.95;;;;;;;5.91;100.00;92760.31;2138198;27;20059;-70
2022/09/17 02:56:32;;;;;;;2.22;1.65;;;;;;;5.92;100.00;92758.44;2137497;27;20023;-70
2022/09/17 02:57:47;;;;;;;2.28;1.90;;;;;;;5.97;100.00;92761.44;2136737;27;20026;-69
2022/09/17 02:59:12;;;;;;;4.93;1.77;;;;;;;6.02;100.00;92758.34;2134670;27;20495;-70
2022/09/17 03:00:19;;;;;;;4.85;1.50;;;;;;;6.09;100.00;92760.16;2138144;27;20038;-68
2022/09/17 03:01:43;;;;;;;2.22;1.80;;;;;;;6.10;100.00;92761.66;2136726;27;20494;-68
2022/09/17 03:02:58;;;;;;;3.15;1.30;;;;;;;6.21;100.00;92764.22;2138427;27;20441;-70
2022/09/17 03:04:03;;;;;;;5.95;1.45;;;;;;;6.12;100.00;92764.69;2138328;27;20091;-69
2022/09/17 03:05:07;;;;;;;1.90;1.45;;;;;;;6.08;100.00;92760.56;2128833;27;20031;-69
2022/09/17 03:06:08;;;;;;;3.03;1.67;;;;;;;6.02;100.00;92762.91;2128877;27;20038;-70
2022/09/17 03:07:11;;;;;;;4.28;1.80;;;;;;;5.99;100.00;92761.03;2138163;27;20052;-68
2022/09/17 03:08:13;;;;;;;4.57;1.73;;;;;;;5.97;100.00;92763.31;2138345;27;20034;-70
2022/09/17 03:09:14;;;;;;;1.90;1.40;;;;;;;6.01;100.00;92764.81;2133935;27;20027;-69
2022/09/17 03:10:16;;;;;;;3.60;1.70;;;;;;;5.85;100.00;92763.81;2137818;27;20022;-68
2022/09/17 03:11:17;;;;;;;6.75;1.67;;;;;;;5.91;100.00;92762.97;2137407;27;20103;-68
2022/09/17 03:12:18;;;;;;;5.80;1.80;;;;;;;5.93;100.00;92758.06;2138243;27;20080;-67
2022/09/17 03:13:19;;;;;;;6.53;1.50;;;;;;;6.02;100.00;92758.34;2138126;27;20091;-70
2022/09/17 03:14:20;;;;;;;3.65;1.52;;;;;;;6.22;100.00;92763.81;2138266;27;20033;-70
2022/09/17 03:15:21;;;;;;;5.15;1.48;;;;;;;6.20;100.00;92757.41;2137507;27;20676;-68
2022/09/17 03:16:22;;;;;;;6.38;1.73;;;;;;;6.32;100.00;92764.84;2137503;27;20042;-70
2022/09/17 03:17:23;;;;;;;3.22;1.20;;;;;;;6.18;100.00;92763.09;2138170;27;20030;-70
2022/09/17 03:18:24;;;;;;;4.70;1.60;;;;;;;6.07;100.00;92773.09;2138100;27;20034;-71
2022/09/17 03:19:26;;;;;;;4.05;1.40;;;;;;;6.07;100.00;92765.13;2138193;27;20022;-69
2022/09/17 03:20:27;;;;;;;2.35;1.40;;;;;;;6.10;100.00;92766.97;2137844;27;20030;-69
2022/09/17 03:21:30;;;;;;;3.72;1.25;;;;;;;6.17;100.00;92766.16;2137276;27;20097;-69
2022/09/17 03:22:31;;;;;;;3.40;1.30;;;;;;;6.30;100.00;92767.91;2138175;27;20034;-69
2022/09/17 03:23:32;;;;;;;1.30;1.20;;;;;;;6.20;100.00;92768.03;2138169;27;20033;-68
2022/09/17 03:24:33;;;;;;;3.05;1.13;;;;;;;6.27;100.00;92773.25;2138003;27;20027;-68
2022/09/17 03:25:33;;;;;;;5.53;1.40;;;;;;;6.12;100.00;92770.00;2137893;27;20022;-69
2022/09/17 03:26:34;;;;;;;2.97;1.23;;;;;;;6.04;100.00;92761.34;2134079;27;20027;-69
2022/09/17 03:27:35;;;;;;;2.92;1.70;;;;;;;5.96;100.00;92773.19;2131688;27;20356;-69
2022/09/17 03:28:36;;;;;;;3.78;1.80;;;;;;;6.04;100.00;92768.56;2132298;27;20433;-69
2022/09/17 03:29:37;;;;;;;1.90;1.20;;;;;;;6.12;100.00;92772.66;2132282;27;20029;-68
2022/09/17 03:30:38;;;;;;;3.72;1.25;;;;;;;5.89;100.00;92780.44;2132111;27;20026;-69
2022/09/17 03:31:39;;;;;;;4.53;1.20;;;;;;;5.84;100.00;92771.03;2132332;27;20038;-68
2022/09/17 03:32:40;;;;;;;2.72;1.45;;;;;;;5.80;100.00;92770.28;2131552;27;20800;-69
2022/09/17 03:33:41;;;;;;;3.00;1.08;;;;;;;5.74;100.00;92769.19;2132278;27;20056;-69
2022/09/17 03:34:42;;;;;;;4.95;1.35;;;;;;;5.75;100.00;92768.81;2132182;27;20018;-69
2022/09/17 03:35:44;;;;;;;2.83;1.23;;;;;;;5.78;100.00;92770.66;2132174;27;20025;-69
2022/09/17 03:36:45;;;;;;;3.80;1.10;;;;;;;5.90;100.00;92779.28;2127976;27;20486;-69
2022/09/17 03:37:46;;;;;;;3.40;1.40;;;;;;;5.92;100.00;92771.72;2132210;27;20030;-69
2022/09/17 03:38:47;;;;;;;1.35;1.20;;;;;;;5.75;100.00;92773.34;2131841;27;20023;-69
2022/09/17 03:39:48;;;;;;;3.22;1.20;;;;;;;5.74;100.00;92769.94;2132255;27;20109;-70
2022/09/17 03:41:00;;;;;;;2.45;1.00;;;;;;;5.77;100.00;92766.53;2132390;27;20038;-69
2022/09/17 03:42:01;;;;;;;5.70;1.20;;;;;;;5.90;100.00;92768.69;2122650;27;20442;-69
2022/09/17 03:43:02;;;;;;;2.33;1.35;;;;;;;5.84;100.00;92764.94;2114100;28;20020;-70
2022/09/17 03:44:03;;;;;;;2.80;1.50;;;;;;;5.82;100.00;92768.00;2122788;27;20476;-69
2022/09/17 03:45:04;;;;;;;3.28;1.10;;;;;;;5.87;100.00;92769.47;2132260;27;20600;-70
2022/09/17 03:46:05;;;;;;;3.45;1.25;;;;;;;5.90;100.00;92763.38;2132267;27;20019;-70
2022/09/17 03:47:06;;;;;;;3.78;1.17;;;;;;;5.84;100.00;92770.25;2131935;27;20018;-70
2022/09/17 03:48:07;;;;;;;1.10;1.00;;;;;;;5.80;100.00;92779.00;2132207;27;20358;-68
2022/09/17 03:49:08;;;;;;;4.47;1.00;;;;;;;5.79;100.00;92768.78;2127690;27;20460;-68
2022/09/17 03:50:09;;;;;;;2.33;0.90;;;;;;;5.86;100.00;92768.72;2132084;27;20035;-70
2022/09/17 03:51:10;;;;;;;2.97;1.00;;;;;;;5.77;100.00;92771.06;2132220;27;20023;-70
2022/09/17 03:52:11;;;;;;;4.55;1.25;;;;;;;5.77;100.00;92782.44;2131878;27;20071;-70
2022/09/17 03:53:12;;;;;;;0.98;0.82;;;;;;;5.73;100.00;92773.75;2131432;27;20110;-70
2022/09/17 03:54:13;;;;;;;2.20;0.90;;;;;;;5.88;100.00;92776.25;2131126;27;20023;-70
2022/09/17 03:55:16;;;;;;;1.13;0.90;;;;;;;5.92;100.00;92771.72;2127907;27;20044;-70
2022/09/17 03:56:17;;;;;;;0.93;0.90;;;;;;;5.78;100.00;92781.28;2132193;27;20030;-68
2022/09/17 03:57:17;;;;;;;1.75;1.00;;;;;;;5.69;100.00;92788.19;2131831;27;20027;-69
2022/09/17 03:58:18;;;;;;;5.75;1.10;;;;;;;5.65;100.00;92784.81;2132122;27;20026;-69
2022/09/17 03:59:19;;;;;;;2.28;1.13;;;;;;;5.74;100.00;92787.75;2122645;27;20019;-69
2022/09/17 04:00:21;;;;;;;4.35;1.20;;;;;;;5.60;100.00;92785.25;2123294;27;20034;-70
2022/09/17 04:01:21;;;;;;;3.08;1.20;;;;;;;5.73;100.00;92788.91;2132213;27;20507;-68
2022/09/17 04:02:22;;;;;;;3.17;1.17;;;;;;;5.67;100.00;92790.50;2131987;27;20023;-68
2022/09/17 04:03:25;;;;;;;7.57;1.25;;;;;;;5.71;100.00;92788.56;2132057;27;20026;-69
2022/09/17 04:04:26;;;;;;;1.10;1.00;;;;;;;5.62;100.00;92788.25;2128233;27;20023;-71
2022/09/17 04:05:26;;;;;;;2.55;1.30;;;;;;;5.66;100.00;92783.66;2132003;27;20030;-69
2022/09/17 04:06:28;;;;;;;1.45;1.20;;;;;;;5.73;100.00;92789.66;2132045;27;20030;-69
2022/09/17 04:07:28;;;;;;;1.92;1.20;;;;;;;5.66;100.00;92776.47;2131802;27;20055;-69
2022/09/17 04:08:29;;;;;;;5.35;1.40;;;;;;;5.71;100.00;92775.31;2132099;27;20023;-69
2022/09/17 04:09:31;;;;;;;2.40;1.30;;;;;;;5.84;100.00;92776.31;2131763;27;20400;-70
2022/09/17 04:10:32;;;;;;;3.67;1.15;;;;;;;5.90;100.00;92777.38;2131821;27;20025;-69
2022/09/17 04:11:33;;;;;;;2.70;1.20;;;;;;;5.83;100.00;92777.44;2132035;27;20018;-70
2022/09/17 04:12:35;;;;;;;3.03;1.30;;;;;;;5.72;100.00;92784.75;2131846;27;20041;-69
2022/09/17 04:13:36;;;;;;;2.15;1.50;;;;;;;5.75;100.00;92778.66;2131850;27;20076;-70
2022/09/17 04:14:37;;;;;;;2.50;1.08;;;;;;;5.70;100.00;92774.53;2131525;27;20027;-70
2022/09/17 04:15:38;;;;;;;3.55;1.38;;;;;;;5.74;100.00;92775.25;2131368;27;20609;-69
2022/09/17 04:16:39;;;;;;;2.75;1.55;;;;;;;5.64;100.00;92775.34;2131945;27;20022;-69
2022/09/17 04:17:40;;;;;;;2.47;1.48;;;;;;;5.62;100.00;92780.28;2132030;27;20030;-70
2022/09/17 04:18:41;;;;;;;2.10;1.50;;;;;;;5.58;100.00;92774.28;2131878;27;20054;-70
2022/09/17 04:19:43;;;;;;;2.08;1.27;;;;;;;5.74;100.00;92787.75;2131876;27;20372;-70
2022/09/17 04:20:44;;;;;;;4.50;1.90;;;;;;;5.72;100.00;92772.25;2131389;27;20058;-69
2022/09/17 04:21:45;;;;;;;2.03;1.75;;;;;;;5.65;100.00;92774.97;2127755;27;20023;-68
2022/09/17 04:22:46;;;;;;;1.90;1.20;;;;;;;5.86;100.00;92766.06;2131973;27;20027;-68
2022/09/17 04:23:47;;;;;;;3.67;1.40;;;;;;;5.74;100.00;92766.56;2131601;27;20027;-69
2022/09/17 04:24:48;;;;;;;8.43;1.85;;;;;;;5.68;100.00;92768.13;2131871;27;20031;-70
2022/09/17 04:25:48;;;;;;;1.80;1.30;;;;;;;5.70;100.00;92765.81;2131221;27;20038;-70
2022/09/17 04:26:49;;;;;;;2.58;1.10;;;;;;;5.79;100.00;92769.53;2122594;27;20384;-70
2022/09/17 04:27:50;;;;;;;4.65;1.55;;;;;;;5.83;100.00;92761.53;2122773;27;20384;-70
2022/09/17 04:28:51;;;;;;;8.52;1.58;;;;;;;5.76;100.00;92762.38;2131504;27;20037;-70
2022/09/17 04:29:52;;;;;;;5.32;1.45;;;;;;;5.62;100.00;92764.38;2131627;27;20027;-69
2022/09/17 04:30:53;;;;;;;4.30;1.38;;;;;;;5.58;100.00;92763.69;2131307;27;20074;-70
2022/09/17 04:31:54;;;;;;;3.08;1.23;;;;;;;5.60;100.00;92771.97;2131861;27;20034;-70
2022/09/17 04:32:55;;;;;;;3.10;1.20;;;;;;;5.72;100.00;92771.50;2131942;27;20099;-69
2022/09/17 04:33:56;;;;;;;4.25;1.55;;;;;;;5.61;100.00;92773.47;2131513;27;20376;-68
2022/09/17 04:34:57;;;;;;;2.22;1.30;;;;;;;5.73;100.00;92770.34;2131663;27;20034;-71
2022/09/17 04:35:58;;;;;;;10.23;1.70;;;;;;;5.66;100.00;92773.06;2121819;27;20027;-71
2022/09/17 04:36:59;;;;;;;5.22;1.50;;;;;;;5.63;100.00;92773.88;2122427;27;20058;-70
2022/09/17 04:38:00;;;;;;;2.65;1.50;;;;;;;5.72;100.00;92776.81;2122110;27;20054;-70
2022/09/17 04:39:01;;;;;;;4.63;1.30;;;;;;;5.85;100.00;92777.81;2121965;27;20023;-70
2022/09/17 04:40:03;;;;;;;1.95;1.10;;;;;;;5.73;100.00;92778.31;2131699;27;20087;-69
2022/09/17 04:41:07;;;;;;;6.28;1.50;;;;;;;5.70;100.00;92787.78;2128256;27;20039;-72
2022/09/17 04:42:08;;;;;;;6.50;1.65;;;;;;;5.58;100.00;92783.00;2130888;27;20042;-70
2022/09/17 04:43:10;;;;;;;7.63;1.33;;;;;;;5.60;100.00;92790.53;2131683;27;20038;-69
2022/09/17 04:44:11;;;;;;;3.63;1.50;;;;;;;5.51;100.00;92783.78;2131622;27;20058;-70
2022/09/17 04:45:12;;;;;;;3.38;1.35;;;;;;;5.61;100.00;92790.16;2131533;27;20460;-69
2022/09/17 04:46:13;;;;;;;6.78;1.20;;;;;;;5.70;100.00;92798.41;2131009;27;20023;-71
2022/09/17 04:47:14;;;;;;;3.72;1.35;;;;;;;5.66;100.00;92795.00;2131778;27;20022;-68
2022/09/17 04:48:15;;;;;;;3.25;1.55;;;;;;;5.71;100.00;92799.19;2127502;27;20155;-69
2022/09/17 04:49:16;;;;;;;2.92;1.55;;;;;;;5.84;100.00;92791.47;2131411;27;20105;-69
2022/09/17 04:50:17;;;;;;;5.90;1.52;;;;;;;5.68;100.00;92794.66;2131447;27;20023;-69
2022/09/17 04:51:18;;;;;;;4.20;1.20;;;;;;;5.63;100.00;92792.41;2122073;27;20095;-71
2022/09/17 04:52:19;;;;;;;4.57;1.60;;;;;;;5.82;100.00;92789.22;2122598;27;20484;-71
2022/09/17 04:53:20;;;;;;;3.17;1.45;;;;;;;5.67;100.00;92793.91;2131680;27;20026;-70
2022/09/17 04:54:21;;;;;;;7.72;1.30;;;;;;;5.82;100.00;92803.22;2131546;27;20039;-71
2022/09/17 04:55:22;;;;;;;3.53;1.30;;;;;;;5.68;100.00;92806.00;2131304;27;20095;-70
2022/09/17 04:56:23;;;;;;;5.38;1.33;;;;;;;5.98;100.00;92802.72;2130869;27;20034;-71
2022/09/17 04:57:25;;;;;;;3.20;1.23;;;;;;;5.86;100.00;92810.41;2131685;27;20031;-71
2022/09/17 04:58:25;;;;;;;3.10;1.48;;;;;;;5.85;100.00;92812.31;2131643;27;20022;-70
2022/09/17 04:59:26;;;;;;;3.92;1.40;;;;;;;5.78;100.00;92813.09;2131673;27;20406;-71
2022/09/17 05:00:27;;;;;;;6.65;2.47;;;;;;;5.66;100.00;92813.56;2131337;27;20049;-69
2022/09/17 05:01:28;;;;;;;5.78;1.73;;;;;;;5.68;100.00;92808.66;2130837;27;20026;-70
2022/09/17 05:02:29;;;;;;;6.50;1.50;;;;;;;5.62;100.00;92807.56;2131576;27;20034;-71
2022/09/17 05:03:30;;;;;;;4.78;1.40;;;;;;;5.59;100.00;92808.34;2131506;27;20100;-71
2022/09/17 05:04:31;;;;;;;8.90;1.70;;;;;;;5.62;100.00;92812.88;2131464;27;20441;-68
2022/09/17 05:05:32;;;;;;;5.55;1.75;;;;;;;5.72;100.00;92811.28;2131206;27;20023;-70
2022/09/17 05:06:42;;;;;;;6.68;1.67;;;;;;;5.83;100.00;92817.22;2130911;27;20341;-69
2022/09/17 05:07:45;;;;;;;4.72;1.73;;;;;;;5.94;100.00;92817.19;2131453;27;20337;-68
2022/09/17 05:08:46;;;;;;;5.10;1.80;;;;;;;6.00;100.00;92813.69;2127036;27;20030;-69
2022/09/17 05:09:47;;;;;;;5.60;1.80;;;;;;;6.05;100.00;92815.16;2130705;27;20086;-69
2022/09/17 05:10:51;;;;;;;4.93;1.90;;;;;;;5.86;100.00;92828.97;2130837;27;20035;-69
2022/09/17 05:11:52;;;;;;;6.03;2.15;;;;;;;5.95;100.00;92821.34;2120645;27;20066;-69
2022/09/17 05:12:55;;;;;;;8.80;2.03;;;;;;;5.99;100.00;92825.47;2122264;27;20030;-69
2022/09/17 05:13:56;;;;;;;6.80;1.75;;;;;;;5.93;100.00;92820.97;2131511;27;20030;-69